Time;durP1;ratioP1;P1;durP2;ratioP2;P2;SDS_P1;SDS_P2;PMS_P1;PMS_P2;Temp;Humidity;BMP_temperature;BMP_pressure;BME280_temperature;BME280_humidity;BME280_pressure;Samples;Min_cycle;Max_cycle;Signal;HPM_P1;HPM_P2
2022/11/19 00:01:03;;;;;;;;;;;24.60;33.80;;;;;;490875;242;1742;-75
2022/11/19 00:03:05;;;;;;;;;;;24.60;34.00;;;;;;490851;242;1161;-75
2022/11/19 00:05:06;;;;;;;;;;;24.60;33.90;;;;;;490783;242;1187;-75
2022/11/19 00:07:07;;;;;;;;;;;24.70;33.90;;;;;;490889;242;1227;-75
2022/11/19 00:09:13;;;;;;;;;;;24.60;33.90;;;;;;490831;242;1271;-75
2022/11/19 00:11:10;;;;;;;;;;;24.60;34.00;;;;;;490618;243;1604;-75
2022/11/19 00:13:12;;;;;;;;;;;24.60;34.00;;;;;;490821;242;1287;-75
2022/11/19 00:15:13;;;;;;;;;;;24.60;34.00;;;;;;490844;242;2176;-75
2022/11/19 00:17:14;;;;;;;;;;;24.60;34.00;;;;;;490819;242;1173;-75
2022/11/19 00:19:16;;;;;;;;;;;24.60;34.00;;;;;;490841;242;1190;-75
2022/11/19 00:21:17;;;;;;;;;;;24.70;34.00;;;;;;490879;242;1305;-75
2022/11/19 00:23:19;;;;;;;;;;;24.60;33.90;;;;;;490892;242;1175;-75
2022/11/19 00:25:20;;;;;;;;;;;24.60;34.00;;;;;;490864;242;1262;-75
2022/11/19 00:27:21;;;;;;;;;;;24.70;33.90;;;;;;490838;242;1188;-75
2022/11/19 00:29:22;;;;;;;;;;;24.60;34.20;;;;;;490902;242;1177;-75
2022/11/19 00:31:24;;;;;;;;;;;24.70;33.90;;;;;;490996;242;1190;-75
2022/11/19 00:33:25;;;;;;;;;;;24.70;33.80;;;;;;490929;242;1316;-75
2022/11/19 00:35:26;;;;;;;;;;;24.60;33.90;;;;;;490990;242;2169;-75
2022/11/19 00:37:28;;;;;;;;;;;24.60;33.80;;;;;;490960;242;1194;-75
2022/11/19 00:39:29;;;;;;;;;;;24.60;34.20;;;;;;490979;242;1197;-75
2022/11/19 00:41:30;;;;;;;;;;;24.60;33.90;;;;;;490907;242;1188;-75
2022/11/19 00:43:47;;;;;;;;;;;24.60;34.30;;;;;;490992;242;1281;-74
2022/11/19 00:45:49;;;;;;;;;;;24.60;34.00;;;;;;490916;242;1222;-75
2022/11/19 00:47:50;;;;;;;;;;;24.60;34.00;;;;;;490985;242;1170;-75
2022/11/19 00:49:51;;;;;;;;;;;24.60;33.80;;;;;;490941;242;1135;-75
2022/11/19 00:51:54;;;;;;;;;;;24.60;34.30;;;;;;490924;242;1248;-75
2022/11/19 00:53:54;;;;;;;;;;;24.60;33.90;;;;;;490907;243;1771;-75
2022/11/19 00:55:55;;;;;;;;;;;24.60;34.00;;;;;;490852;242;2192;-75
2022/11/19 00:57:56;;;;;;;;;;;24.60;34.00;;;;;;490856;242;1132;-75
2022/11/19 00:59:58;;;;;;;;;;;24.60;34.00;;;;;;490897;242;1287;-75
2022/11/19 01:01:59;;;;;;;;;;;24.60;34.30;;;;;;490848;242;1285;-75
2022/11/19 01:04:00;;;;;;;;;;;24.60;34.00;;;;;;490951;242;1181;-75
2022/11/19 01:06:02;;;;;;;;;;;24.50;34.00;;;;;;490865;242;1165;-75
2022/11/19 01:08:03;;;;;;;;;;;24.60;34.40;;;;;;490874;242;1213;-75
2022/11/19 01:10:05;;;;;;;;;;;24.60;33.90;;;;;;490865;242;1305;-75
2022/11/19 01:12:06;;;;;;;;;;;24.60;33.90;;;;;;490755;242;1612;-75
2022/11/19 01:14:07;;;;;;;;;;;24.60;34.20;;;;;;490860;242;1245;-75
2022/11/19 01:16:09;;;;;;;;;;;24.60;34.00;;;;;;490854;242;2172;-75
2022/11/19 01:18:10;;;;;;;;;;;24.60;34.20;;;;;;490808;242;1231;-75
2022/11/19 01:20:11;;;;;;;;;;;24.70;34.00;;;;;;490918;242;1162;-75
2022/11/19 01:22:13;;;;;;;;;;;24.60;33.90;;;;;;490863;242;1242;-75
2022/11/19 01:24:14;;;;;;;;;;;24.60;34.10;;;;;;490844;242;1247;-75
2022/11/19 01:26:15;;;;;;;;;;;24.60;34.00;;;;;;490935;242;1210;-75
2022/11/19 01:28:17;;;;;;;;;;;24.60;34.10;;;;;;490941;242;1285;-75
2022/11/19 01:30:18;;;;;;;;;;;24.60;34.00;;;;;;490944;242;1193;-75
2022/11/19 01:32:19;;;;;;;;;;;24.60;34.00;;;;;;490951;242;1187;-75
2022/11/19 01:34:21;;;;;;;;;;;24.60;34.40;;;;;;490894;242;1168;-75
2022/11/19 01:36:22;;;;;;;;;;;24.60;34.00;;;;;;490971;242;2196;-75
2022/11/19 01:38:23;;;;;;;;;;;24.60;34.20;;;;;;491008;242;1208;-75
2022/11/19 01:40:25;;;;;;;;;;;24.60;34.00;;;;;;490973;242;1164;-75
2022/11/19 01:44:47;;;;;;;;;;;24.60;34.40;;;;;;490810;243;1223;-75
2022/11/19 01:46:48;;;;;;;;;;;24.60;34.00;;;;;;490944;242;1178;-75
2022/11/19 01:48:49;;;;;;;;;;;24.60;34.20;;;;;;490913;242;1223;-75
2022/11/19 01:50:51;;;;;;;;;;;24.60;34.10;;;;;;490963;242;1168;-75
2022/11/19 01:52:52;;;;;;;;;;;24.50;34.50;;;;;;490943;242;1251;-75
2022/11/19 01:54:53;;;;;;;;;;;24.60;34.10;;;;;;490917;242;1254;-75
2022/11/19 01:56:55;;;;;;;;;;;24.60;34.20;;;;;;491000;242;2201;-74
2022/11/19 01:58:56;;;;;;;;;;;24.50;34.10;;;;;;490954;242;1165;-75
2022/11/19 02:00:57;;;;;;;;;;;24.50;34.10;;;;;;490879;242;1239;-75
2022/11/19 02:02:59;;;;;;;;;;;24.50;34.10;;;;;;490892;242;1189;-75
2022/11/19 02:05:00;;;;;;;;;;;24.50;34.10;;;;;;490926;242;1195;-75
2022/11/19 02:07:01;;;;;;;;;;;24.50;34.50;;;;;;490843;242;1185;-75
2022/11/19 02:09:03;;;;;;;;;;;24.50;34.10;;;;;;490812;242;1270;-75
2022/11/19 02:11:04;;;;;;;;;;;24.60;34.30;;;;;;490849;242;1176;-75
2022/11/19 02:13:05;;;;;;;;;;;24.50;34.10;;;;;;490820;242;1255;-75
2022/11/19 02:15:07;;;;;;;;;;;24.50;34.20;;;;;;490866;242;1221;-75
2022/11/19 02:17:08;;;;;;;;;;;24.50;34.40;;;;;;490880;242;2188;-75
2022/11/19 02:19:09;;;;;;;;;;;24.60;34.10;;;;;;490814;242;1317;-75
2022/11/19 02:21:11;;;;;;;;;;;24.50;34.10;;;;;;490810;242;1311;-75
2022/11/19 02:23:12;;;;;;;;;;;24.60;34.20;;;;;;490765;242;1282;-75
2022/11/19 02:25:13;;;;;;;;;;;24.60;34.10;;;;;;490815;242;1221;-75
2022/11/19 02:27:15;;;;;;;;;;;24.60;34.10;;;;;;490877;242;1195;-75
2022/11/19 02:29:16;;;;;;;;;;;24.60;34.30;;;;;;490829;242;1236;-75
2022/11/19 02:31:17;;;;;;;;;;;24.60;34.10;;;;;;490870;242;1197;-75
2022/11/19 02:33:19;;;;;;;;;;;24.60;34.10;;;;;;490791;242;1295;-75
2022/11/19 02:35:20;;;;;;;;;;;24.60;34.50;;;;;;490809;242;1190;-75
2022/11/19 02:37:21;;;;;;;;;;;24.60;34.20;;;;;;490778;242;2165;-75
2022/11/19 02:39:23;;;;;;;;;;;24.60;34.20;;;;;;490821;242;1339;-75
2022/11/19 02:41:33;;;;;;;;;;;24.60;34.60;;;;;;490884;242;1312;-75
2022/11/19 02:43:35;;;;;;;;;;;24.60;34.10;;;;;;490906;242;1217;-75
2022/11/19 02:45:36;;;;;;;;;;;24.50;34.20;;;;;;490761;242;1418;-75
2022/11/19 02:47:37;;;;;;;;;;;24.60;34.20;;;;;;490819;242;1238;-75
2022/11/19 02:49:39;;;;;;;;;;;24.60;34.40;;;;;;490774;242;1232;-75
2022/11/19 02:51:40;;;;;;;;;;;24.60;34.10;;;;;;490827;242;1224;-75
2022/11/19 02:53:41;;;;;;;;;;;24.60;34.10;;;;;;490823;242;1279;-75
2022/11/19 02:56:09;;;;;;;;;;;24.60;34.30;;;;;;490847;242;2193;-75
2022/11/19 02:57:47;;;;;;;;;;;24.60;34.40;;;;;;489348;243;1221;-75
2022/11/19 03:04:30;;;;;;;;;;;24.50;34.40;;;;;;490876;243;1180;-75
2022/11/19 03:06:33;;;;;;;;;;;24.50;34.60;;;;;;490882;242;1210;-75
2022/11/19 03:08:33;;;;;;;;;;;24.60;34.30;;;;;;490962;243;1447;-75
2022/11/19 03:10:34;;;;;;;;;;;24.50;34.30;;;;;;490917;242;1178;-75
2022/11/19 03:12:35;;;;;;;;;;;24.50;34.40;;;;;;490889;242;1138;-75
2022/11/19 03:16:56;;;;;;;;;;;24.50;34.60;;;;;;490909;243;2168;-75
2022/11/19 03:18:57;;;;;;;;;;;24.60;34.30;;;;;;490924;242;1166;-75
2022/11/19 03:20:59;;;;;;;;;;;24.60;34.20;;;;;;490973;242;1214;-75
2022/11/19 03:23:00;;;;;;;;;;;24.60;34.20;;;;;;490901;242;1169;-75
2022/11/19 03:25:01;;;;;;;;;;;24.50;34.20;;;;;;490952;242;1203;-75
2022/11/19 03:27:03;;;;;;;;;;;24.60;34.30;;;;;;490787;242;1196;-75
2022/11/19 03:29:04;;;;;;;;;;;24.60;34.60;;;;;;490876;242;1232;-75
2022/11/19 03:31:05;;;;;;;;;;;24.60;34.50;;;;;;490813;242;1175;-75
2022/11/19 03:33:07;;;;;;;;;;;24.60;34.20;;;;;;490871;242;1155;-75
2022/11/19 03:35:08;;;;;;;;;;;24.60;34.10;;;;;;490809;242;1230;-75
2022/11/19 03:37:09;;;;;;;;;;;24.60;34.20;;;;;;490877;242;2205;-75
2022/11/19 03:39:11;;;;;;;;;;;24.60;34.20;;;;;;490909;242;1220;-75
2022/11/19 03:41:12;;;;;;;;;;;24.60;34.30;;;;;;491026;242;1342;-75
2022/11/19 03:43:13;;;;;;;;;;;24.50;34.20;;;;;;490973;242;1173;-75
2022/11/19 03:45:15;;;;;;;;;;;24.50;34.30;;;;;;490919;242;1274;-75
2022/11/19 03:47:16;;;;;;;;;;;24.50;34.30;;;;;;491010;242;1212;-75
2022/11/19 03:49:17;;;;;;;;;;;24.50;34.30;;;;;;490995;242;1207;-75
2022/11/19 03:51:19;;;;;;;;;;;24.50;34.30;;;;;;490932;242;1217;-75
2022/11/19 03:53:20;;;;;;;;;;;24.60;34.60;;;;;;490869;242;1177;-75
2022/11/19 03:55:21;;;;;;;;;;;24.60;34.60;;;;;;490961;242;1297;-75
2022/11/19 03:57:23;;;;;;;;;;;24.60;34.40;;;;;;490943;242;2216;-75
2022/11/19 03:59:24;;;;;;;;;;;24.60;34.20;;;;;;490902;242;1194;-75
2022/11/19 04:01:25;;;;;;;;;;;24.60;34.10;;;;;;490951;242;1218;-75
2022/11/19 04:03:27;;;;;;;;;;;24.60;34.10;;;;;;490997;242;1166;-75
2022/11/19 04:05:28;;;;;;;;;;;24.60;34.10;;;;;;490962;242;1181;-75
2022/11/19 04:07:29;;;;;;;;;;;24.60;34.20;;;;;;490921;242;1173;-75
2022/11/19 04:09:31;;;;;;;;;;;24.60;34.30;;;;;;490925;242;1312;-75
2022/11/19 04:11:32;;;;;;;;;;;24.50;34.30;;;;;;490894;242;1257;-75
2022/11/19 04:13:33;;;;;;;;;;;24.50;34.50;;;;;;490893;242;1197;-75
2022/11/19 04:15:35;;;;;;;;;;;24.50;34.50;;;;;;490938;242;1197;-75
2022/11/19 04:17:36;;;;;;;;;;;24.50;34.60;;;;;;490880;242;2175;-75
2022/11/19 04:19:37;;;;;;;;;;;24.50;34.40;;;;;;490844;242;1352;-75
2022/11/19 04:21:39;;;;;;;;;;;24.50;34.30;;;;;;491053;242;1218;-75
2022/11/19 04:23:40;;;;;;;;;;;24.50;34.20;;;;;;490832;242;1218;-75
2022/11/19 04:25:41;;;;;;;;;;;24.50;34.20;;;;;;490902;242;1307;-75
2022/11/19 04:27:43;;;;;;;;;;;24.50;34.70;;;;;;490939;242;1179;-75
2022/11/19 04:29:44;;;;;;;;;;;24.50;34.40;;;;;;490960;242;1481;-75
2022/11/19 04:31:45;;;;;;;;;;;24.60;34.50;;;;;;490914;242;1377;-75
2022/11/19 04:33:47;;;;;;;;;;;24.60;34.60;;;;;;490876;242;1190;-75
2022/11/19 04:35:48;;;;;;;;;;;24.50;34.50;;;;;;490864;242;1186;-75
2022/11/19 04:37:49;;;;;;;;;;;24.60;34.50;;;;;;490886;242;2199;-75
2022/11/19 04:39:51;;;;;;;;;;;24.60;34.60;;;;;;490823;242;1181;-75
2022/11/19 04:41:52;;;;;;;;;;;24.50;34.50;;;;;;490806;242;1201;-75
2022/11/19 04:43:53;;;;;;;;;;;24.50;34.30;;;;;;490798;242;1209;-75
2022/11/19 04:45:55;;;;;;;;;;;24.60;34.40;;;;;;490890;242;1279;-75
2022/11/19 04:47:56;;;;;;;;;;;24.50;34.30;;;;;;490782;242;1244;-75
2022/11/19 04:49:57;;;;;;;;;;;24.60;34.20;;;;;;490766;242;1307;-75
2022/11/19 04:51:59;;;;;;;;;;;24.60;34.20;;;;;;490783;242;1159;-75
2022/11/19 04:54:00;;;;;;;;;;;24.50;34.10;;;;;;490861;242;1511;-75
2022/11/19 04:56:01;;;;;;;;;;;24.50;34.10;;;;;;490853;242;1282;-75
2022/11/19 04:58:03;;;;;;;;;;;24.50;34.20;;;;;;490804;242;2185;-75
2022/11/19 05:00:04;;;;;;;;;;;24.50;34.20;;;;;;490792;242;1343;-75
2022/11/19 05:02:05;;;;;;;;;;;24.50;34.20;;;;;;490801;242;1359;-75
2022/11/19 05:04:07;;;;;;;;;;;24.50;34.30;;;;;;490820;242;1269;-75
2022/11/19 05:06:08;;;;;;;;;;;24.50;34.30;;;;;;490810;242;1354;-75
2022/11/19 05:08:09;;;;;;;;;;;24.50;34.30;;;;;;490806;242;1477;-75
2022/11/19 05:10:11;;;;;;;;;;;24.50;34.40;;;;;;490781;242;1236;-75
2022/11/19 05:12:12;;;;;;;;;;;24.50;34.20;;;;;;490889;242;1126;-75
2022/11/19 05:14:13;;;;;;;;;;;24.50;34.40;;;;;;490926;242;1161;-75
2022/11/19 05:16:15;;;;;;;;;;;24.50;34.30;;;;;;490867;242;1208;-75
2022/11/19 05:18:16;;;;;;;;;;;24.50;34.30;;;;;;490748;242;2180;-75
2022/11/19 05:20:17;;;;;;;;;;;24.50;34.30;;;;;;490782;242;1174;-75
2022/11/19 05:22:19;;;;;;;;;;;24.50;34.10;;;;;;490900;242;1228;-75
2022/11/19 05:24:20;;;;;;;;;;;24.50;34.10;;;;;;490803;242;1289;-75
2022/11/19 05:26:21;;;;;;;;;;;24.50;34.10;;;;;;490893;242;1347;-75
2022/11/19 05:28:23;;;;;;;;;;;24.50;34.20;;;;;;490916;242;1184;-75
2022/11/19 05:30:24;;;;;;;;;;;24.50;34.20;;;;;;490844;242;1207;-75
2022/11/19 05:32:25;;;;;;;;;;;24.50;34.20;;;;;;490863;242;1267;-75
2022/11/19 05:34:27;;;;;;;;;;;24.50;34.20;;;;;;490951;242;1149;-75
2022/11/19 05:36:28;;;;;;;;;;;24.50;34.20;;;;;;490912;242;1158;-75
2022/11/19 05:38:29;;;;;;;;;;;24.50;34.40;;;;;;490855;242;2110;-75
2022/11/19 05:40:31;;;;;;;;;;;24.50;34.50;;;;;;490987;242;1210;-75
2022/11/19 05:42:32;;;;;;;;;;;24.50;34.50;;;;;;490942;242;1208;-75
2022/11/19 05:44:33;;;;;;;;;;;24.50;34.30;;;;;;490880;242;1192;-75
2022/11/19 05:46:35;;;;;;;;;;;24.50;34.20;;;;;;490779;242;1281;-75
2022/11/19 05:48:36;;;;;;;;;;;24.60;34.10;;;;;;490885;242;1214;-75
2022/11/19 05:50:37;;;;;;;;;;;24.60;34.00;;;;;;490861;242;1451;-75
2022/11/19 05:52:39;;;;;;;;;;;24.60;34.00;;;;;;490851;242;1183;-75
2022/11/19 05:54:40;;;;;;;;;;;24.60;34.40;;;;;;490846;242;1266;-75
2022/11/19 05:56:41;;;;;;;;;;;24.60;34.40;;;;;;490777;242;2173;-75
2022/11/19 05:58:43;;;;;;;;;;;24.50;34.40;;;;;;490771;242;1195;-75
2022/11/19 06:00:44;;;;;;;;;;;24.50;34.20;;;;;;490812;242;1234;-75
2022/11/19 06:02:45;;;;;;;;;;;24.50;34.00;;;;;;490793;242;1287;-75
2022/11/19 06:04:47;;;;;;;;;;;24.60;34.00;;;;;;490817;242;1159;-75
2022/11/19 06:06:48;;;;;;;;;;;24.60;33.90;;;;;;490841;242;1212;-75
2022/11/19 06:08:49;;;;;;;;;;;24.60;34.00;;;;;;490909;242;1165;-75
2022/11/19 06:10:51;;;;;;;;;;;24.60;34.00;;;;;;490931;242;1631;-75
2022/11/19 06:12:52;;;;;;;;;;;24.50;34.00;;;;;;490838;242;1176;-75
2022/11/19 06:14:54;;;;;;;;;;;24.50;34.10;;;;;;490824;242;1209;-75
2022/11/19 06:16:55;;;;;;;;;;;24.60;34.20;;;;;;490722;242;2177;-75
2022/11/19 06:18:56;;;;;;;;;;;24.60;34.40;;;;;;490810;242;1285;-75
2022/11/19 06:20:57;;;;;;;;;;;24.50;34.00;;;;;;490866;242;1206;-75
2022/11/19 06:22:59;;;;;;;;;;;24.50;34.00;;;;;;490956;242;1323;-75
2022/11/19 06:25:00;;;;;;;;;;;24.50;34.00;;;;;;490851;242;1210;-75
2022/11/19 06:27:01;;;;;;;;;;;24.60;34.00;;;;;;490905;242;1273;-75
2022/11/19 06:29:03;;;;;;;;;;;24.60;34.10;;;;;;490825;242;1228;-75
2022/11/19 06:31:04;;;;;;;;;;;24.60;34.30;;;;;;490846;242;1232;-75
2022/11/19 06:33:05;;;;;;;;;;;24.50;34.20;;;;;;490923;242;1147;-75
2022/11/19 06:35:07;;;;;;;;;;;24.60;34.10;;;;;;490897;242;1203;-75
2022/11/19 06:37:08;;;;;;;;;;;24.50;34.00;;;;;;490909;242;2177;-75
2022/11/19 06:39:09;;;;;;;;;;;24.50;34.00;;;;;;490945;242;1130;-75
2022/11/19 06:41:11;;;;;;;;;;;24.50;34.30;;;;;;490902;242;1282;-75
2022/11/19 06:43:12;;;;;;;;;;;24.50;34.00;;;;;;490891;242;1199;-75
2022/11/19 06:45:13;;;;;;;;;;;24.50;34.00;;;;;;490903;242;1179;-75
2022/11/19 06:47:15;;;;;;;;;;;24.50;34.10;;;;;;490772;242;1213;-75
2022/11/19 06:49:16;;;;;;;;;;;24.50;34.20;;;;;;490788;242;1272;-75
2022/11/19 06:51:17;;;;;;;;;;;24.50;34.40;;;;;;490898;242;1173;-75
2022/11/19 06:53:19;;;;;;;;;;;24.50;34.20;;;;;;490795;242;1293;-75
2022/11/19 06:55:20;;;;;;;;;;;24.50;34.10;;;;;;490829;242;1203;-75
2022/11/19 06:57:21;;;;;;;;;;;24.50;34.20;;;;;;490791;242;2184;-75
2022/11/19 06:59:23;;;;;;;;;;;24.50;34.20;;;;;;490840;242;1217;-75
2022/11/19 07:01:24;;;;;;;;;;;24.50;34.40;;;;;;490785;242;1216;-75
2022/11/19 07:03:25;;;;;;;;;;;24.40;34.20;;;;;;490761;242;1163;-75
2022/11/19 07:05:27;;;;;;;;;;;24.50;34.10;;;;;;490915;242;1416;-75
2022/11/19 07:07:28;;;;;;;;;;;24.40;34.10;;;;;;490804;242;1182;-75
2022/11/19 07:09:30;;;;;;;;;;;24.40;34.20;;;;;;490804;242;1279;-75
2022/11/19 07:11:31;;;;;;;;;;;24.50;34.40;;;;;;490851;242;1228;-75
2022/11/19 07:15:53;;;;;;;;;;;24.50;34.20;;;;;;490740;243;1225;-75
2022/11/19 07:17:54;;;;;;;;;;;24.40;34.10;;;;;;490871;242;2172;-75
2022/11/19 07:19:55;;;;;;;;;;;24.40;34.20;;;;;;490772;242;1214;-75
2022/11/19 07:21:57;;;;;;;;;;;24.40;34.20;;;;;;490872;242;1183;-75
2022/11/19 07:23:58;;;;;;;;;;;24.40;34.30;;;;;;490862;242;1167;-75
2022/11/19 07:25:59;;;;;;;;;;;24.40;34.40;;;;;;490886;242;1287;-75
2022/11/19 07:28:01;;;;;;;;;;;24.40;34.10;;;;;;490962;242;1185;-75
2022/11/19 07:30:04;;;;;;;;;;;24.40;34.10;;;;;;490940;242;1209;-75
2022/11/19 07:32:04;;;;;;;;;;;24.40;34.50;;;;;;490846;242;1431;-75
2022/11/19 07:34:05;;;;;;;;;;;24.50;34.10;;;;;;490983;242;1168;-75
2022/11/19 07:36:06;;;;;;;;;;;24.50;34.10;;;;;;490950;242;1200;-75
2022/11/19 07:38:08;;;;;;;;;;;24.40;34.20;;;;;;490963;242;2200;-75
2022/11/19 07:40:10;;;;;;;;;;;24.40;34.30;;;;;;490935;242;1216;-75
2022/11/19 07:44:30;;;;;;;;;;;24.50;34.50;;;;;;490856;243;1197;-75
2022/11/19 07:46:32;;;;;;;;;;;24.50;34.40;;;;;;490944;242;1184;-75
2022/11/19 07:48:33;;;;;;;;;;;24.40;34.20;;;;;;490878;242;1247;-75
2022/11/19 07:50:34;;;;;;;;;;;24.50;34.20;;;;;;490901;242;1208;-75
2022/11/19 07:52:36;;;;;;;;;;;24.50;34.30;;;;;;490912;242;1252;-75
2022/11/19 07:54:37;;;;;;;;;;;24.50;34.40;;;;;;490881;242;1291;-75
2022/11/19 07:56:38;;;;;;;;;;;24.40;34.50;;;;;;490844;242;1167;-75
2022/11/19 07:58:40;;;;;;;;;;;24.50;34.40;;;;;;490928;242;2199;-74
2022/11/19 08:00:41;;;;;;;;;;;24.40;34.40;;;;;;490810;242;1251;-74
2022/11/19 08:02:42;;;;;;;;;;;24.50;34.30;;;;;;490887;242;1184;-75
2022/11/19 08:04:44;;;;;;;;;;;24.50;34.20;;;;;;490952;242;1154;-75
2022/11/19 08:06:45;;;;;;;;;;;24.50;34.20;;;;;;490942;242;1356;-75
2022/11/19 08:08:46;;;;;;;;;;;24.50;34.30;;;;;;490807;242;1319;-75
2022/11/19 08:10:48;;;;;;;;;;;24.50;34.40;;;;;;490840;242;1589;-75
2022/11/19 08:13:01;;;;;;;;;;;24.50;34.50;;;;;;490932;242;1163;-75
2022/11/19 08:14:50;;;;;;;;;;;24.50;34.40;;;;;;489959;243;1323;-75
2022/11/19 08:19:11;;;;;;;;;;;24.50;34.70;;;;;;490777;243;2141;-75
2022/11/19 08:21:12;;;;;;;;;;;24.50;34.40;;;;;;490934;242;1208;-75
2022/11/19 08:23:14;;;;;;;;;;;24.50;34.40;;;;;;490886;242;1267;-74
2022/11/19 08:25:15;;;;;;;;;;;24.50;34.40;;;;;;490839;242;1279;-74
2022/11/19 08:27:17;;;;;;;;;;;24.50;34.50;;;;;;490790;242;1157;-74
2022/11/19 08:29:18;;;;;;;;;;;24.40;34.50;;;;;;490861;242;1216;-75
2022/11/19 08:31:19;;;;;;;;;;;24.40;34.50;;;;;;490864;242;1182;-75
2022/11/19 08:33:20;;;;;;;;;;;24.40;34.60;;;;;;490850;242;1188;-75
2022/11/19 08:35:22;;;;;;;;;;;24.50;34.50;;;;;;490809;242;1445;-74
2022/11/19 08:37:23;;;;;;;;;;;24.50;34.60;;;;;;490851;242;1228;-75
2022/11/19 08:39:24;;;;;;;;;;;24.40;34.50;;;;;;490880;242;2188;-75
2022/11/19 08:44:04;;;;;;;;;;;24.50;34.60;;;;;;473358;250;1268;-75
2022/11/19 08:46:06;;;;;;;;;;;24.40;34.90;;;;;;473422;252;1248;-75
2022/11/19 08:48:09;;;;;;;;;;;24.40;34.90;;;;;;473363;252;1349;-75
2022/11/19 08:50:09;;;;;;;;;;;24.40;35.20;;;;;;473303;252;1474;-75
2022/11/19 08:52:11;;;;;;;;;;;24.40;35.10;;;;;;473375;252;1332;-75
2022/11/19 08:54:12;;;;;;;;;;;24.40;35.10;;;;;;473419;252;1333;-75
2022/11/19 08:56:13;;;;;;;;;;;24.50;34.90;;;;;;473337;252;1285;-75
2022/11/19 08:58:15;;;;;;;;;;;24.50;34.80;;;;;;473338;252;2213;-75
2022/11/19 09:00:16;;;;;;;;;;;24.50;34.80;;;;;;473258;252;1386;-75
2022/11/19 09:02:17;;;;;;;;;;;24.50;35.20;;;;;;473349;252;1332;-75
2022/11/19 09:04:19;;;;;;;;;;;24.50;35.00;;;;;;473276;252;1392;-75
2022/11/19 09:06:20;;;;;;;;;;;24.50;34.90;;;;;;473332;252;1384;-75
2022/11/19 09:08:21;;;;;;;;;;;24.50;34.80;;;;;;473349;252;1352;-75
2022/11/19 09:10:23;;;;;;;;;;;24.50;34.80;;;;;;473292;252;1283;-75
2022/11/19 09:12:24;;;;;;;;;;;24.50;35.00;;;;;;473339;252;1340;-75
2022/11/19 09:14:25;;;;;;;;;;;24.50;35.20;;;;;;473317;252;1339;-75
2022/11/19 09:16:27;;;;;;;;;;;24.50;35.20;;;;;;490682;243;1201;-75
2022/11/19 09:18:28;;;;;;;;;;;24.50;35.10;;;;;;490872;242;2145;-75
2022/11/19 09:20:29;;;;;;;;;;;24.50;35.00;;;;;;490786;242;1338;-75
2022/11/19 09:22:31;;;;;;;;;;;24.50;34.90;;;;;;490887;242;1180;-75
2022/11/19 09:24:32;;;;;;;;;;;24.50;34.90;;;;;;490819;242;1229;-75
2022/11/19 09:26:33;;;;;;;;;;;24.50;35.30;;;;;;490898;242;1219;-75
2022/11/19 09:28:35;;;;;;;;;;;24.50;35.10;;;;;;490833;242;1168;-75
2022/11/19 09:30:36;;;;;;;;;;;24.50;35.00;;;;;;490895;242;1173;-75
2022/11/19 09:32:37;;;;;;;;;;;24.50;35.00;;;;;;490975;242;1114;-74
2022/11/19 09:34:40;;;;;;;;;;;24.50;35.50;;;;;;490965;242;1223;-75
2022/11/19 09:36:40;;;;;;;;;;;24.50;35.20;;;;;;490982;243;1447;-75
2022/11/19 09:38:42;;;;;;;;;;;24.50;35.00;;;;;;490877;242;2181;-75
2022/11/19 09:40:43;;;;;;;;;;;24.60;35.00;;;;;;490956;242;1313;-75
2022/11/19 09:42:44;;;;;;;;;;;24.50;35.00;;;;;;490856;242;1216;-75
2022/11/19 09:44:46;;;;;;;;;;;24.60;35.50;;;;;;490906;242;1239;-75
2022/11/19 09:46:47;;;;;;;;;;;24.60;35.40;;;;;;490971;242;1155;-75
2022/11/19 09:48:48;;;;;;;;;;;24.50;35.40;;;;;;490917;242;1268;-75
2022/11/19 09:50:50;;;;;;;;;;;24.60;35.30;;;;;;490981;242;1178;-75
2022/11/19 09:52:51;;;;;;;;;;;24.60;35.20;;;;;;490883;242;1151;-75
2022/11/19 09:54:52;;;;;;;;;;;24.50;35.40;;;;;;490822;242;1255;-74
2022/11/19 09:56:54;;;;;;;;;;;24.50;35.50;;;;;;490868;242;1210;-75
2022/11/19 09:58:55;;;;;;;;;;;24.60;35.20;;;;;;490784;242;2176;-75
2022/11/19 10:00:58;;;;;;;;;;;24.60;35.30;;;;;;490942;242;1255;-75
2022/11/19 10:02:58;;;;;;;;;;;24.60;35.60;;;;;;490735;243;1472;-75
2022/11/19 10:04:59;;;;;;;;;;;24.60;35.20;;;;;;490848;242;1226;-75
2022/11/19 10:07:00;;;;;;;;;;;24.60;35.80;;;;;;490904;242;1201;-75
2022/11/19 10:09:02;;;;;;;;;;;24.60;35.50;;;;;;490927;242;1180;-75
2022/11/19 10:11:03;;;;;;;;;;;24.60;35.20;;;;;;490967;242;1289;-75
2022/11/19 10:13:11;;;;;;;;;;;24.60;35.70;;;;;;490811;242;1275;-75
2022/11/19 10:15:12;;;;;;;;;;;24.60;35.30;;;;;;490805;242;1172;-75
2022/11/19 10:17:14;;;;;;;;;;;24.60;35.70;;;;;;490886;242;1282;-75
2022/11/19 10:19:15;;;;;;;;;;;24.60;35.50;;;;;;490896;243;2145;-75
2022/11/19 10:21:16;;;;;;;;;;;24.60;35.40;;;;;;490826;242;1151;-75
2022/11/19 10:23:18;;;;;;;;;;;24.70;35.30;;;;;;490811;242;1274;-75
2022/11/19 10:25:19;;;;;;;;;;;24.70;35.40;;;;;;490846;242;1569;-75
2022/11/19 10:27:20;;;;;;;;;;;24.60;35.30;;;;;;490859;242;1190;-75
2022/11/19 10:29:22;;;;;;;;;;;24.70;35.20;;;;;;490914;242;1180;-75
2022/11/19 10:31:23;;;;;;;;;;;24.60;35.30;;;;;;490916;242;1248;-75
2022/11/19 10:33:24;;;;;;;;;;;24.60;35.30;;;;;;490911;242;1226;-75
2022/11/19 10:35:26;;;;;;;;;;;24.70;35.20;;;;;;490919;242;1316;-75
2022/11/19 10:37:27;;;;;;;;;;;24.70;35.20;;;;;;490882;242;1364;-74
2022/11/19 10:39:28;;;;;;;;;;;24.80;35.20;;;;;;490966;242;2200;-75
2022/11/19 10:41:30;;;;;;;;;;;24.70;35.20;;;;;;490893;242;1192;-75
2022/11/19 10:43:31;;;;;;;;;;;24.70;35.20;;;;;;490961;242;1171;-75
2022/11/19 10:45:32;;;;;;;;;;;24.60;35.30;;;;;;490909;242;1161;-75
2022/11/19 10:47:34;;;;;;;;;;;24.70;35.30;;;;;;490899;242;1144;-75
2022/11/19 10:49:35;;;;;;;;;;;24.70;35.50;;;;;;490886;242;1132;-75
2022/11/19 10:51:36;;;;;;;;;;;24.70;35.20;;;;;;490979;242;1258;-75
2022/11/19 10:53:38;;;;;;;;;;;24.70;35.10;;;;;;490832;242;1191;-75
2022/11/19 10:55:39;;;;;;;;;;;24.60;35.10;;;;;;491007;242;1251;-75
2022/11/19 10:57:40;;;;;;;;;;;24.60;35.20;;;;;;490951;242;1185;-75
2022/11/19 10:59:42;;;;;;;;;;;24.60;35.60;;;;;;490860;242;2168;-75
2022/11/19 11:01:44;;;;;;;;;;;24.60;35.20;;;;;;490878;242;1240;-74
2022/11/19 11:03:45;;;;;;;;;;;24.60;35.30;;;;;;490906;242;1149;-74
2022/11/19 11:05:46;;;;;;;;;;;24.60;35.30;;;;;;490983;242;1186;-75
2022/11/19 11:07:48;;;;;;;;;;;24.60;35.20;;;;;;490859;242;1220;-75
2022/11/19 11:09:49;;;;;;;;;;;24.60;35.20;;;;;;490798;242;1163;-75
2022/11/19 11:16:29;;;;;;;;;;;24.60;35.20;;;;;;490802;243;1267;-75
2022/11/19 11:18:30;;;;;;;;;;;24.60;35.20;;;;;;490722;242;1188;-75
2022/11/19 11:20:32;;;;;;;;;;;24.60;35.20;;;;;;490838;242;2153;-75
2022/11/19 11:22:33;;;;;;;;;;;24.60;35.40;;;;;;490810;242;1294;-75
2022/11/19 11:24:34;;;;;;;;;;;24.60;35.20;;;;;;490758;242;1184;-75
2022/11/19 11:26:36;;;;;;;;;;;24.60;35.30;;;;;;490847;242;1333;-75
2022/11/19 11:28:37;;;;;;;;;;;24.60;35.20;;;;;;490872;242;1410;-75
2022/11/19 11:30:38;;;;;;;;;;;24.60;35.50;;;;;;490822;242;1231;-75
2022/11/19 11:32:40;;;;;;;;;;;24.60;35.20;;;;;;490854;242;1500;-75
2022/11/19 11:34:41;;;;;;;;;;;24.60;35.50;;;;;;490713;242;1190;-75
2022/11/19 11:36:42;;;;;;;;;;;24.60;35.10;;;;;;490790;242;1171;-74
2022/11/19 11:38:44;;;;;;;;;;;24.60;35.40;;;;;;490784;242;2216;-75
2022/11/19 11:40:45;;;;;;;;;;;24.70;35.10;;;;;;490755;242;1213;-75
2022/11/19 11:42:46;;;;;;;;;;;24.60;35.10;;;;;;490864;242;1178;-75
2022/11/19 11:44:48;;;;;;;;;;;24.60;35.20;;;;;;490796;242;1184;-75
2022/11/19 11:46:49;;;;;;;;;;;24.60;35.20;;;;;;490875;242;1215;-75
2022/11/19 11:48:50;;;;;;;;;;;24.60;35.20;;;;;;490905;242;1394;-75
2022/11/19 11:50:52;;;;;;;;;;;24.60;35.20;;;;;;490851;242;1177;-75
2022/11/19 11:52:53;;;;;;;;;;;24.60;35.20;;;;;;490925;242;1234;-75
2022/11/19 11:54:54;;;;;;;;;;;24.60;35.40;;;;;;490896;242;1325;-75
2022/11/19 11:56:56;;;;;;;;;;;24.60;35.60;;;;;;490852;242;1172;-75
2022/11/19 11:58:57;;;;;;;;;;;24.60;35.40;;;;;;490800;242;2188;-75
2022/11/19 12:00:58;;;;;;;;;;;24.60;35.40;;;;;;490856;242;1294;-75
2022/11/19 12:03:00;;;;;;;;;;;24.60;35.40;;;;;;490904;242;1215;-75
2022/11/19 12:05:01;;;;;;;;;;;24.60;35.10;;;;;;490922;242;1204;-75
2022/11/19 12:07:03;;;;;;;;;;;24.60;35.20;;;;;;490939;242;1176;-75
2022/11/19 12:09:04;;;;;;;;;;;24.60;35.20;;;;;;490918;242;1126;-75
2022/11/19 12:11:05;;;;;;;;;;;24.60;35.10;;;;;;490958;242;1205;-74
2022/11/19 12:13:06;;;;;;;;;;;24.60;35.10;;;;;;490924;242;1181;-74
2022/11/19 12:15:08;;;;;;;;;;;24.60;35.20;;;;;;490953;242;1245;-74
2022/11/19 12:17:09;;;;;;;;;;;24.50;35.30;;;;;;490989;242;1282;-75
2022/11/19 12:19:11;;;;;;;;;;;24.60;35.30;;;;;;490905;242;2188;-75
2022/11/19 12:21:12;;;;;;;;;;;24.60;35.20;;;;;;490995;242;1360;-75